sensor_id;sensor_type;location;lat;lon;timestamp;pressure;altitude;pressure_sealevel;temperature;humidity
30730;BME280;17476;48.458;7.928;2023-08-17T00:04:23;99964.19;;;23.22;94.97
30730;BME280;17476;48.458;7.928;2023-08-17T00:06:49;99962.31;;;23.23;93.76
30730;BME280;17476;48.458;7.928;2023-08-17T00:09:15;99961.53;;;23.22;93.82
30730;BME280;17476;48.458;7.928;2023-08-17T00:11:40;99964.44;;;23.21;95.07
30730;BME280;17476;48.458;7.928;2023-08-17T00:14:06;99965.25;;;23.21;94.68
30730;BME280;17476;48.458;7.928;2023-08-17T00:16:32;99954.28;;;23.18;94.49
30730;BME280;17476;48.458;7.928;2023-08-17T00:18:58;99957.66;;;23.13;95.13
30730;BME280;17476;48.458;7.928;2023-08-17T00:21:24;99960.00;;;23.09;95.40
30730;BME280;17476;48.458;7.928;2023-08-17T00:23:49;99953.88;;;23.09;94.83
30730;BME280;17476;48.458;7.928;2023-08-17T00:26:16;99957.13;;;23.11;96.25
30730;BME280;17476;48.458;7.928;2023-08-17T00:28:41;99962.19;;;23.12;96.41
30730;BME280;17476;48.458;7.928;2023-08-17T00:31:07;99948.31;;;23.10;96.47
30730;BME280;17476;48.458;7.928;2023-08-17T00:33:33;99953.13;;;23.13;96.42
30730;BME280;17476;48.458;7.928;2023-08-17T00:35:59;99946.44;;;23.11;95.38
30730;BME280;17476;48.458;7.928;2023-08-17T00:38:25;99955.50;;;23.10;95.63
30730;BME280;17476;48.458;7.928;2023-08-17T00:40:50;99951.16;;;23.04;95.90
30730;BME280;17476;48.458;7.928;2023-08-17T00:43:16;99945.56;;;23.05;96.44
30730;BME280;17476;48.458;7.928;2023-08-17T00:45:44;99940.69;;;23.02;96.31
30730;BME280;17476;48.458;7.928;2023-08-17T00:48:11;99950.56;;;23.02;96.71
30730;BME280;17476;48.458;7.928;2023-08-17T00:50:38;99945.22;;;23.02;96.40
30730;BME280;17476;48.458;7.928;2023-08-17T00:53:05;99943.63;;;23.01;96.33
30730;BME280;17476;48.458;7.928;2023-08-17T00:55:33;99944.44;;;23.01;95.49
30730;BME280;17476;48.458;7.928;2023-08-17T00:57:59;99933.75;;;23.01;96.01
30730;BME280;17476;48.458;7.928;2023-08-17T01:00:25;99938.28;;;23.01;96.80
30730;BME280;17476;48.458;7.928;2023-08-17T01:02:53;99930.03;;;23.02;96.88
30730;BME280;17476;48.458;7.928;2023-08-17T01:05:19;99931.09;;;23.01;96.03
30730;BME280;17476;48.458;7.928;2023-08-17T01:07:45;99926.56;;;23.02;96.88
30730;BME280;17476;48.458;7.928;2023-08-17T01:10:11;99933.50;;;23.03;97.40
30730;BME280;17476;48.458;7.928;2023-08-17T01:13:10;99934.88;;;23.05;97.02
30730;BME280;17476;48.458;7.928;2023-08-17T01:15:49;99938.38;;;23.06;96.44
30730;BME280;17476;48.458;7.928;2023-08-17T01:18:26;99948.47;;;23.04;96.64
30730;BME280;17476;48.458;7.928;2023-08-17T01:20:54;99943.44;;;23.07;96.51
30730;BME280;17476;48.458;7.928;2023-08-17T01:23:21;99948.31;;;23.10;95.90
30730;BME280;17476;48.458;7.928;2023-08-17T01:25:48;99953.66;;;23.10;95.26
30730;BME280;17476;48.458;7.928;2023-08-17T01:28:14;99957.34;;;23.09;94.98
30730;BME280;17476;48.458;7.928;2023-08-17T01:33:20;99953.88;;;23.09;95.18
30730;BME280;17476;48.458;7.928;2023-08-17T01:36:17;99958.41;;;23.08;94.80
30730;BME280;17476;48.458;7.928;2023-08-17T01:38:45;99948.53;;;23.09;94.12
30730;BME280;17476;48.458;7.928;2023-08-17T01:41:13;99944.50;;;23.06;93.95
30730;BME280;17476;48.458;7.928;2023-08-17T01:43:45;99936.50;;;23.06;93.66
30730;BME280;17476;48.458;7.928;2023-08-17T01:46:15;99942.63;;;23.07;93.64
30730;BME280;17476;48.458;7.928;2023-08-17T01:48:42;99940.78;;;23.07;93.79
30730;BME280;17476;48.458;7.928;2023-08-17T01:51:10;99950.66;;;23.07;93.36
30730;BME280;17476;48.458;7.928;2023-08-17T01:53:35;99949.84;;;23.06;92.98
30730;BME280;17476;48.458;7.928;2023-08-17T01:56:03;99948.53;;;23.09;93.89
30730;BME280;17476;48.458;7.928;2023-08-17T01:58:29;99952.25;;;23.08;94.02
30730;BME280;17476;48.458;7.928;2023-08-17T02:00:54;99956.53;;;23.09;93.92
30730;BME280;17476;48.458;7.928;2023-08-17T02:03:20;99944.59;;;23.11;96.08
30730;BME280;17476;48.458;7.928;2023-08-17T02:05:46;99944.59;;;23.11;96.17
30730;BME280;17476;48.458;7.928;2023-08-17T02:08:12;99945.38;;;23.12;96.56
30730;BME280;17476;48.458;7.928;2023-08-17T02:10:38;99948.06;;;23.12;96.65
30730;BME280;17476;48.458;7.928;2023-08-17T02:13:04;99944.00;;;23.09;98.08
30730;BME280;17476;48.458;7.928;2023-08-17T02:15:30;99940.94;;;23.18;97.39
30730;BME280;17476;48.458;7.928;2023-08-17T02:18:01;99946.56;;;23.21;96.13
30730;BME280;17476;48.458;7.928;2023-08-17T02:20:27;99944.63;;;23.16;96.02
30730;BME280;17476;48.458;7.928;2023-08-17T02:22:52;99941.75;;;23.18;96.61
30730;BME280;17476;48.458;7.928;2023-08-17T02:25:18;99942.53;;;23.19;97.03
30730;BME280;17476;48.458;7.928;2023-08-17T02:27:44;99945.47;;;23.17;96.88
30730;BME280;17476;48.458;7.928;2023-08-17T02:30:10;99945.47;;;23.17;96.72
30730;BME280;17476;48.458;7.928;2023-08-17T02:32:36;99932.03;;;23.12;95.95
30730;BME280;17476;48.458;7.928;2023-08-17T02:35:02;99934.97;;;23.10;93.91
30730;BME280;17476;48.458;7.928;2023-08-17T02:37:28;99937.31;;;23.07;93.06
30730;BME280;17476;48.458;7.928;2023-08-17T02:39:54;99943.16;;;23.04;92.15
30730;BME280;17476;48.458;7.928;2023-08-17T02:42:19;99940.47;;;23.04;92.76
30730;BME280;17476;48.458;7.928;2023-08-17T02:44:45;99939.09;;;23.01;92.26
30730;BME280;17476;48.458;7.928;2023-08-17T02:47:11;99939.25;;;22.95;91.47
30730;BME280;17476;48.458;7.928;2023-08-17T02:49:37;99932.31;;;22.94;91.38
30730;BME280;17476;48.458;7.928;2023-08-17T02:52:03;99931.25;;;22.95;91.55
30730;BME280;17476;48.458;7.928;2023-08-17T02:54:30;99928.03;;;22.93;91.19
30730;BME280;17476;48.458;7.928;2023-08-17T02:56:57;99927.22;;;22.92;91.17
30730;BME280;17476;48.458;7.928;2023-08-17T02:59:23;99929.66;;;22.94;91.94
30730;BME280;17476;48.458;7.928;2023-08-17T03:01:49;99915.75;;;22.92;91.71
30730;BME280;17476;48.458;7.928;2023-08-17T03:04:15;99918.09;;;22.88;92.14
30730;BME280;17476;48.458;7.928;2023-08-17T03:06:40;99916.00;;;22.90;92.73
30730;BME280;17476;48.458;7.928;2023-08-17T03:09:06;99918.44;;;22.92;94.07
30730;BME280;17476;48.458;7.928;2023-08-17T03:11:32;99906.88;;;22.86;94.99
30730;BME280;17476;48.458;7.928;2023-08-17T03:14:01;99909.28;;;22.87;95.54
30730;BME280;17476;48.458;7.928;2023-08-17T03:16:27;99911.03;;;22.82;96.49
30730;BME280;17476;48.458;7.928;2023-08-17T03:18:53;99908.16;;;22.83;96.25
30730;BME280;17476;48.458;7.928;2023-08-17T03:21:19;99916.06;;;22.78;95.06
30730;BME280;17476;48.458;7.928;2023-08-17T03:23:45;99918.19;;;22.76;94.69
30730;BME280;17476;48.458;7.928;2023-08-17T03:26:11;99921.66;;;22.77;93.82
30730;BME280;17476;48.458;7.928;2023-08-17T03:28:37;99918.19;;;22.76;94.62
30730;BME280;17476;48.458;7.928;2023-08-17T03:31:02;99923.22;;;22.90;94.20
30730;BME280;17476;48.458;7.928;2023-08-17T03:33:29;99911.47;;;22.91;94.50
30730;BME280;17476;48.458;7.928;2023-08-17T03:35:55;99912.28;;;22.91;94.93
30730;BME280;17476;48.458;7.928;2023-08-17T03:38:20;99912.84;;;22.93;93.20
30730;BME280;17476;48.458;7.928;2023-08-17T03:40:49;99911.22;;;22.92;92.40
30730;BME280;17476;48.458;7.928;2023-08-17T03:43:15;99914.03;;;22.85;92.16
30730;BME280;17476;48.458;7.928;2023-08-17T03:45:42;99913.69;;;22.82;91.03
30730;BME280;17476;48.458;7.928;2023-08-17T03:48:09;99912.34;;;22.79;91.83
30730;BME280;17476;48.458;7.928;2023-08-17T03:50:35;99915.81;;;22.80;92.07
30730;BME280;17476;48.458;7.928;2023-08-17T03:53:01;99911.19;;;22.75;92.01
30730;BME280;17476;48.458;7.928;2023-08-17T03:55:27;99912.84;;;22.76;91.15
30730;BME280;17476;48.458;7.928;2023-08-17T03:57:52;99917.13;;;22.77;91.18
30730;BME280;17476;48.458;7.928;2023-08-17T04:00:18;99915.19;;;22.73;91.35
30730;BME280;17476;48.458;7.928;2023-08-17T04:02:44;99907.97;;;22.73;91.40
30730;BME280;17476;48.458;7.928;2023-08-17T04:05:10;99917.28;;;22.71;91.86
30730;BME280;17476;48.458;7.928;2023-08-17T04:07:36;99921.81;;;22.70;91.75
30730;BME280;17476;48.458;7.928;2023-08-17T04:10:05;99915.91;;;22.68;92.02
30730;BME280;17476;48.458;7.928;2023-08-17T04:12:31;99919.06;;;22.65;91.44
30730;BME280;17476;48.458;7.928;2023-08-17T04:14:57;99924.66;;;22.64;91.54
30730;BME280;17476;48.458;7.928;2023-08-17T04:17:22;99926.50;;;22.63;91.14
30730;BME280;17476;48.458;7.928;2023-08-17T04:19:48;99926.50;;;22.63;90.99
30730;BME280;17476;48.458;7.928;2023-08-17T04:22:14;99930.44;;;22.60;91.47
30730;BME280;17476;48.458;7.928;2023-08-17T04:24:39;99934.25;;;22.65;91.82
30730;BME280;17476;48.458;7.928;2023-08-17T04:27:05;99935.69;;;22.55;94.93
30730;BME280;17476;48.458;7.928;2023-08-17T04:29:31;99938.69;;;22.42;95.98
30730;BME280;17476;48.458;7.928;2023-08-17T04:32:00;99933.69;;;22.46;97.49
30730;BME280;17476;48.458;7.928;2023-08-17T04:34:26;99931.41;;;22.38;96.73
30730;BME280;17476;48.458;7.928;2023-08-17T04:36:52;99934.88;;;22.38;98.56
30730;BME280;17476;48.458;7.928;2023-08-17T04:39:18;99934.19;;;22.43;98.63
30730;BME280;17476;48.458;7.928;2023-08-17T04:41:43;99940.31;;;22.43;98.14
30730;BME280;17476;48.458;7.928;2023-08-17T04:44:09;99932.38;;;22.48;97.39
30730;BME280;17476;48.458;7.928;2023-08-17T04:46:35;99932.53;;;22.42;96.50
30730;BME280;17476;48.458;7.928;2023-08-17T04:49:01;99936.03;;;22.42;94.34
30730;BME280;17476;48.458;7.928;2023-08-17T04:51:27;99941.78;;;22.51;94.11
30730;BME280;17476;48.458;7.928;2023-08-17T04:53:53;99939.72;;;22.41;94.96
30730;BME280;17476;48.458;7.928;2023-08-17T04:56:19;99935.44;;;22.23;96.36
30730;BME280;17476;48.458;7.928;2023-08-17T04:58:45;99939.47;;;22.26;95.64
30730;BME280;17476;48.458;7.928;2023-08-17T05:01:10;99933.91;;;22.27;94.93
30730;BME280;17476;48.458;7.928;2023-08-17T05:03:36;99934.16;;;22.26;95.25
30730;BME280;17476;48.458;7.928;2023-08-17T05:06:02;99934.69;;;22.28;95.13
30730;BME280;17476;48.458;7.928;2023-08-17T05:08:28;99938.75;;;22.30;95.11
30730;BME280;17476;48.458;7.928;2023-08-17T05:10:54;99947.56;;;22.31;95.08
30730;BME280;17476;48.458;7.928;2023-08-17T05:13:20;99940.13;;;22.33;94.93
30730;BME280;17476;48.458;7.928;2023-08-17T05:15:46;99940.13;;;22.33;94.78
30730;BME280;17476;48.458;7.928;2023-08-17T05:18:11;99942.88;;;22.38;94.25
30730;BME280;17476;48.458;7.928;2023-08-17T05:20:37;99946.91;;;22.41;93.50
30730;BME280;17476;48.458;7.928;2023-08-17T05:23:03;99948.53;;;22.42;94.16
30730;BME280;17476;48.458;7.928;2023-08-17T05:25:29;99947.25;;;22.44;94.53
30730;BME280;17476;48.458;7.928;2023-08-17T05:27:55;99947.22;;;22.27;95.50
30730;BME280;17476;48.458;7.928;2023-08-17T05:30:21;99953.53;;;22.38;96.13
30730;BME280;17476;48.458;7.928;2023-08-17T05:32:47;99946.91;;;22.41;95.58
30730;BME280;17476;48.458;7.928;2023-08-17T05:35:13;99954.19;;;22.45;94.58
30730;BME280;17476;48.458;7.928;2023-08-17T05:37:39;99952.69;;;22.49;94.03
30730;BME280;17476;48.458;7.928;2023-08-17T05:40:05;99949.75;;;22.51;94.95
30730;BME280;17476;48.458;7.928;2023-08-17T05:42:31;99955.66;;;22.53;93.88
30730;BME280;17476;48.458;7.928;2023-08-17T05:44:57;99956.16;;;22.50;93.25
30730;BME280;17476;48.458;7.928;2023-08-17T05:47:22;99956.94;;;22.50;92.84
30730;BME280;17476;48.458;7.928;2023-08-17T05:49:48;99956.16;;;22.50;93.19
30730;BME280;17476;48.458;7.928;2023-08-17T05:52:14;99950.31;;;22.53;93.26
30730;BME280;17476;48.458;7.928;2023-08-17T05:54:40;99953.53;;;22.55;93.22
30730;BME280;17476;48.458;7.928;2023-08-17T05:57:07;99954.69;;;22.59;92.58
30730;BME280;17476;48.458;7.928;2023-08-17T05:59:32;99960.91;;;22.65;93.20
30730;BME280;17476;48.458;7.928;2023-08-17T06:01:58;99963.34;;;22.66;93.44
30730;BME280;17476;48.458;7.928;2023-08-17T06:04:24;99965.44;;;22.64;92.86
30730;BME280;17476;48.458;7.928;2023-08-17T06:06:50;99958.00;;;22.66;92.72
30730;BME280;17476;48.458;7.928;2023-08-17T06:09:15;99969.56;;;22.72;92.92
30730;BME280;17476;48.458;7.928;2023-08-17T06:11:41;99968.91;;;22.81;92.22
30730;BME280;17476;48.458;7.928;2023-08-17T06:14:07;99973.03;;;22.89;91.85
30730;BME280;17476;48.458;7.928;2023-08-17T06:16:33;99965.28;;;22.71;92.58
30730;BME280;17476;48.458;7.928;2023-08-17T06:18:58;99961.44;;;22.33;95.14
30730;BME280;17476;48.458;7.928;2023-08-17T06:21:24;99967.69;;;22.39;95.49
30730;BME280;17476;48.458;7.928;2023-08-17T06:23:50;99968.81;;;22.59;94.99
30730;BME280;17476;48.458;7.928;2023-08-17T06:26:16;99959.28;;;22.80;93.21
30730;BME280;17476;48.458;7.928;2023-08-17T06:28:41;99967.00;;;22.94;92.93
30730;BME280;17476;48.458;7.928;2023-08-17T06:31:07;99971.69;;;23.03;91.58
30730;BME280;17476;48.458;7.928;2023-08-17T06:33:33;99966.97;;;23.10;91.32
30730;BME280;17476;48.458;7.928;2023-08-17T06:35:59;99963.31;;;23.16;91.14
30730;BME280;17476;48.458;7.928;2023-08-17T06:38:24;99970.28;;;23.18;90.98
30730;BME280;17476;48.458;7.928;2023-08-17T06:40:52;99980.78;;;23.24;91.00
30730;BME280;17476;48.458;7.928;2023-08-17T06:43:18;99976.97;;;23.20;90.52
30730;BME280;17476;48.458;7.928;2023-08-17T06:45:44;99977.25;;;23.02;91.75
30730;BME280;17476;48.458;7.928;2023-08-17T06:48:10;99967.97;;;23.04;91.14
30730;BME280;17476;48.458;7.928;2023-08-17T06:50:36;99971.66;;;23.20;90.23
30730;BME280;17476;48.458;7.928;2023-08-17T06:53:02;99965.97;;;23.33;89.35
30730;BME280;17476;48.458;7.928;2023-08-17T06:55:28;99966.91;;;22.72;93.79
30730;BME280;17476;48.458;7.928;2023-08-17T06:57:54;99971.88;;;22.68;94.39
30730;BME280;17476;48.458;7.928;2023-08-17T07:00:21;99973.78;;;23.01;92.32
30730;BME280;17476;48.458;7.928;2023-08-17T07:02:50;99979.97;;;23.24;90.67
30730;BME280;17476;48.458;7.928;2023-08-17T07:05:16;99976.94;;;23.37;89.59
30730;BME280;17476;48.458;7.928;2023-08-17T07:07:42;99976.19;;;23.41;89.15
30730;BME280;17476;48.458;7.928;2023-08-17T07:10:10;99978.44;;;23.50;88.93
30730;BME280;17476;48.458;7.928;2023-08-17T07:12:39;99982.31;;;23.59;88.57
30730;BME280;17476;48.458;7.928;2023-08-17T07:15:07;99988.03;;;23.67;88.91
30730;BME280;17476;48.458;7.928;2023-08-17T07:17:33;99987.84;;;23.74;88.39
30730;BME280;17476;48.458;7.928;2023-08-17T07:20:00;99990.88;;;23.83;88.32
30730;BME280;17476;48.458;7.928;2023-08-17T07:22:26;99999.28;;;23.91;87.83
30730;BME280;17476;48.458;7.928;2023-08-17T07:24:51;100007.06;;;23.93;87.29
30730;BME280;17476;48.458;7.928;2023-08-17T07:27:17;99992.63;;;23.94;86.47
30730;BME280;17476;48.458;7.928;2023-08-17T07:29:43;100005.44;;;23.92;86.50
30730;BME280;17476;48.458;7.928;2023-08-17T07:32:09;99998.25;;;23.92;86.17
30730;BME280;17476;48.458;7.928;2023-08-17T07:34:36;100002.00;;;23.96;87.00
30730;BME280;17476;48.458;7.928;2023-08-17T07:37:04;100002.94;;;24.07;86.90
30730;BME280;17476;48.458;7.928;2023-08-17T07:39:30;100009.50;;;24.21;85.71
30730;BME280;17476;48.458;7.928;2023-08-17T07:41:55;100009.84;;;24.30;84.70
30730;BME280;17476;48.458;7.928;2023-08-17T07:44:21;100011.53;;;24.36;84.87
30730;BME280;17476;48.458;7.928;2023-08-17T07:46:47;100010.66;;;24.31;84.54
30730;BME280;17476;48.458;7.928;2023-08-17T07:49:13;100006.34;;;24.03;85.00
30730;BME280;17476;48.458;7.928;2023-08-17T07:51:38;100015.38;;;23.96;85.12
30730;BME280;17476;48.458;7.928;2023-08-17T07:54:04;100011.28;;;23.89;86.43
30730;BME280;17476;48.458;7.928;2023-08-17T07:56:30;100006.72;;;23.89;85.18
30730;BME280;17476;48.458;7.928;2023-08-17T07:58:56;100012.38;;;23.32;89.63
30730;BME280;17476;48.458;7.928;2023-08-17T08:01:22;100011.94;;;23.57;88.56
30730;BME280;17476;48.458;7.928;2023-08-17T08:03:48;100014.19;;;23.87;88.17
30730;BME280;17476;48.458;7.928;2023-08-17T08:06:14;100015.78;;;24.10;86.56
30730;BME280;17476;48.458;7.928;2023-08-17T08:08:40;100016.09;;;24.14;84.79
30730;BME280;17476;48.458;7.928;2023-08-17T08:11:06;100010.69;;;24.09;85.14
30730;BME280;17476;48.458;7.928;2023-08-17T08:13:32;100009.56;;;24.05;85.98
30730;BME280;17476;48.458;7.928;2023-08-17T08:16:01;100016.56;;;24.06;85.85
30730;BME280;17476;48.458;7.928;2023-08-17T08:18:27;100011.09;;;24.22;85.12
30730;BME280;17476;48.458;7.928;2023-08-17T08:20:52;100015.34;;;24.40;84.20
30730;BME280;17476;48.458;7.928;2023-08-17T08:23:18;100013.56;;;24.51;83.65
30730;BME280;17476;48.458;7.928;2023-08-17T08:25:44;100017.50;;;24.43;84.43
30730;BME280;17476;48.458;7.928;2023-08-17T08:28:10;100015.47;;;24.56;83.13
30730;BME280;17476;48.458;7.928;2023-08-17T08:30:36;100020.28;;;24.32;83.70
30730;BME280;17476;48.458;7.928;2023-08-17T08:33:02;100019.66;;;24.24;84.89
30730;BME280;17476;48.458;7.928;2023-08-17T08:35:28;100015.44;;;24.29;84.76
30730;BME280;17476;48.458;7.928;2023-08-17T08:37:55;100018.97;;;24.56;84.09
30730;BME280;17476;48.458;7.928;2023-08-17T08:40:28;100021.22;;;25.01;81.87
30730;BME280;17476;48.458;7.928;2023-08-17T08:42:55;100024.59;;;25.24;80.62
30730;BME280;17476;48.458;7.928;2023-08-17T08:45:23;100025.72;;;25.33;79.06
30730;BME280;17476;48.458;7.928;2023-08-17T08:47:49;100021.66;;;25.25;78.97
30730;BME280;17476;48.458;7.928;2023-08-17T08:50:20;100018.47;;;25.28;79.22
30730;BME280;17476;48.458;7.928;2023-08-17T08:53:00;100023.41;;;25.52;78.64
30730;BME280;17476;48.458;7.928;2023-08-17T08:55:37;100017.81;;;25.58;79.13
30730;BME280;17476;48.458;7.928;2023-08-17T08:58:04;100020.91;;;25.88;75.62
30730;BME280;17476;48.458;7.928;2023-08-17T09:00:32;100020.69;;;25.99;75.46
30730;BME280;17476;48.458;7.928;2023-08-17T09:02:59;100027.19;;;26.19;74.44
30730;BME280;17476;48.458;7.928;2023-08-17T09:05:31;100018.50;;;25.81;76.51
30730;BME280;17476;48.458;7.928;2023-08-17T09:07:58;100011.03;;;25.93;76.23
30730;BME280;17476;48.458;7.928;2023-08-17T09:10:24;100010.28;;;26.08;76.59
30730;BME280;17476;48.458;7.928;2023-08-17T09:12:50;100002.63;;;26.42;75.00
30730;BME280;17476;48.458;7.928;2023-08-17T09:15:16;99991.09;;;26.77;73.22
30730;BME280;17476;48.458;7.928;2023-08-17T09:17:43;99992.41;;;27.00;72.39
30730;BME280;17476;48.458;7.928;2023-08-17T09:20:10;99985.97;;;26.81;72.85
30730;BME280;17476;48.458;7.928;2023-08-17T09:22:38;99985.44;;;26.84;73.83
30730;BME280;17476;48.458;7.928;2023-08-17T09:25:09;99986.50;;;27.03;71.56
30730;BME280;17476;48.458;7.928;2023-08-17T09:27:39;99982.97;;;27.28;71.06
30730;BME280;17476;48.458;7.928;2023-08-17T09:30:10;99987.84;;;27.11;72.64
30730;BME280;17476;48.458;7.928;2023-08-17T09:32:36;99983.84;;;26.73;74.09
30730;BME280;17476;48.458;7.928;2023-08-17T09:35:03;99979.00;;;27.10;72.69
30730;BME280;17476;48.458;7.928;2023-08-17T09:37:32;99971.47;;;27.12;71.89
30730;BME280;17476;48.458;7.928;2023-08-17T09:39:58;99971.69;;;27.26;72.45
30730;BME280;17476;48.458;7.928;2023-08-17T09:42:24;99970.38;;;27.08;74.11
30730;BME280;17476;48.458;7.928;2023-08-17T09:44:52;99974.38;;;27.31;72.12
30730;BME280;17476;48.458;7.928;2023-08-17T09:47:19;99983.75;;;27.34;71.96
30730;BME280;17476;48.458;7.928;2023-08-17T09:49:54;99974.00;;;27.68;70.83
30730;BME280;17476;48.458;7.928;2023-08-17T09:52:23;99969.56;;;27.93;68.53
30730;BME280;17476;48.458;7.928;2023-08-17T09:54:52;99973.28;;;28.02;68.72
30730;BME280;17476;48.458;7.928;2023-08-17T09:57:20;99972.03;;;28.34;67.49
30730;BME280;17476;48.458;7.928;2023-08-17T09:59:46;99971.72;;;28.69;66.39
30730;BME280;17476;48.458;7.928;2023-08-17T10:02:20;99969.47;;;28.81;65.31
30730;BME280;17476;48.458;7.928;2023-08-17T10:04:53;99964.56;;;28.89;64.97
30730;BME280;17476;48.458;7.928;2023-08-17T10:07:20;99969.94;;;28.94;65.52
30730;BME280;17476;48.458;7.928;2023-08-17T10:09:55;99964.78;;;28.97;64.93
30730;BME280;17476;48.458;7.928;2023-08-17T10:12:27;99973.97;;;29.20;63.57
30730;BME280;17476;48.458;7.928;2023-08-17T10:15:02;99978.00;;;29.47;62.59
30730;BME280;17476;48.458;7.928;2023-08-17T10:17:45;99979.41;;;29.63;62.51
30730;BME280;17476;48.458;7.928;2023-08-17T10:20:14;99983.38;;;29.71;61.80
30730;BME280;17476;48.458;7.928;2023-08-17T10:23:17;99982.50;;;29.94;61.28
30730;BME280;17476;48.458;7.928;2023-08-17T10:25:44;99991.47;;;29.47;62.50
30730;BME280;17476;48.458;7.928;2023-08-17T10:28:12;99993.31;;;29.46;62.11
30730;BME280;17476;48.458;7.928;2023-08-17T10:30:40;100008.41;;;29.23;63.18
30730;BME280;17476;48.458;7.928;2023-08-17T10:33:06;99996.25;;;28.68;65.54
30730;BME280;17476;48.458;7.928;2023-08-17T10:35:35;100001.09;;;28.26;67.61
30730;BME280;17476;48.458;7.928;2023-08-17T10:38:03;99991.63;;;28.73;66.09
30730;BME280;17476;48.458;7.928;2023-08-17T10:40:36;99992.50;;;29.27;64.59
30730;BME280;17476;48.458;7.928;2023-08-17T10:43:02;99986.19;;;29.36;64.14
30730;BME280;17476;48.458;7.928;2023-08-17T10:45:33;99979.88;;;29.70;62.93
30730;BME280;17476;48.458;7.928;2023-08-17T10:50:36;99974.38;;;30.37;60.44
30730;BME280;17476;48.458;7.928;2023-08-17T10:53:11;99968.59;;;30.43;61.37
30730;BME280;17476;48.458;7.928;2023-08-17T10:55:44;99969.22;;;30.87;59.24
30730;BME280;17476;48.458;7.928;2023-08-17T10:58:11;99968.94;;;31.16;58.42
30730;BME280;17476;48.458;7.928;2023-08-17T11:00:41;99963.16;;;31.64;58.12
30730;BME280;17476;48.458;7.928;2023-08-17T11:03:18;99956.53;;;31.84;58.28
30730;BME280;17476;48.458;7.928;2023-08-17T11:05:49;99949.72;;;31.72;57.38
30730;BME280;17476;48.458;7.928;2023-08-17T11:08:32;99948.25;;;32.02;58.43
30730;BME280;17476;48.458;7.928;2023-08-17T11:13:34;99933.34;;;32.81;54.24
30730;BME280;17476;48.458;7.928;2023-08-17T11:16:02;99925.03;;;33.08;53.77
30730;BME280;17476;48.458;7.928;2023-08-17T11:18:28;99914.34;;;33.12;53.54
30730;BME280;17476;48.458;7.928;2023-08-17T11:20:54;99916.78;;;33.31;52.30
30730;BME280;17476;48.458;7.928;2023-08-17T11:23:22;99917.03;;;33.52;52.95
30730;BME280;17476;48.458;7.928;2023-08-17T11:25:48;99913.41;;;33.74;52.27
30730;BME280;17476;48.458;7.928;2023-08-17T11:28:14;99904.59;;;33.77;49.83
30730;BME280;17476;48.458;7.928;2023-08-17T11:30:40;99896.94;;;33.79;51.54
30730;BME280;17476;48.458;7.928;2023-08-17T11:33:08;99893.78;;;33.94;51.93
30730;BME280;17476;48.458;7.928;2023-08-17T11:35:34;99889.13;;;34.03;48.79
30730;BME280;17476;48.458;7.928;2023-08-17T11:38:00;99877.47;;;33.85;53.11
30730;BME280;17476;48.458;7.928;2023-08-17T11:40:26;99880.66;;;34.22;52.95
30730;BME280;17476;48.458;7.928;2023-08-17T11:42:52;99874.34;;;34.56;52.23
30730;BME280;17476;48.458;7.928;2023-08-17T11:45:19;99877.59;;;34.79;51.75
30730;BME280;17476;48.458;7.928;2023-08-17T11:47:47;99892.31;;;34.78;49.55
30730;BME280;17476;48.458;7.928;2023-08-17T11:50:13;99882.56;;;34.77;50.00
30730;BME280;17476;48.458;7.928;2023-08-17T11:52:40;99883.06;;;35.09;50.15
30730;BME280;17476;48.458;7.928;2023-08-17T11:55:10;99869.63;;;35.33;48.12
30730;BME280;17476;48.458;7.928;2023-08-17T11:57:37;99872.94;;;35.47;48.04
30730;BME280;17476;48.458;7.928;2023-08-17T12:00:06;99870.06;;;35.65;47.04
30730;BME280;17476;48.458;7.928;2023-08-17T12:02:32;99880.69;;;35.78;47.23
30730;BME280;17476;48.458;7.928;2023-08-17T12:05:04;99878.06;;;35.82;45.29
30730;BME280;17476;48.458;7.928;2023-08-17T12:07:33;99876.94;;;35.83;46.07
30730;BME280;17476;48.458;7.928;2023-08-17T12:09:58;99874.91;;;35.59;46.12
30730;BME280;17476;48.458;7.928;2023-08-17T12:12:24;99874.19;;;35.71;44.67
30730;BME280;17476;48.458;7.928;2023-08-17T12:14:50;99868.50;;;35.13;48.45
30730;BME280;17476;48.458;7.928;2023-08-17T12:17:20;99868.41;;;35.51;48.35
30730;BME280;17476;48.458;7.928;2023-08-17T12:19:53;99873.72;;;35.48;46.53
30730;BME280;17476;48.458;7.928;2023-08-17T12:22:19;99875.44;;;35.52;47.20
30730;BME280;17476;48.458;7.928;2023-08-17T12:24:48;99871.44;;;34.61;49.18
30730;BME280;17476;48.458;7.928;2023-08-17T12:27:14;99868.88;;;34.65;48.18
30730;BME280;17476;48.458;7.928;2023-08-17T12:29:50;99867.97;;;34.82;48.98
30730;BME280;17476;48.458;7.928;2023-08-17T12:32:18;99874.63;;;35.01;48.91
30730;BME280;17476;48.458;7.928;2023-08-17T12:34:45;99879.28;;;35.01;48.50
30730;BME280;17476;48.458;7.928;2023-08-17T12:37:17;99871.72;;;35.36;47.16
30730;BME280;17476;48.458;7.928;2023-08-17T12:39:43;99871.75;;;35.57;46.26
30730;BME280;17476;48.458;7.928;2023-08-17T12:42:09;99871.53;;;35.12;48.44
30730;BME280;17476;48.458;7.928;2023-08-17T12:44:35;99863.59;;;35.27;47.82
30730;BME280;17476;48.458;7.928;2023-08-17T12:47:00;99862.19;;;35.21;49.33
30730;BME280;17476;48.458;7.928;2023-08-17T12:49:26;99852.59;;;35.24;49.45
30730;BME280;17476;48.458;7.928;2023-08-17T12:51:52;99844.13;;;35.46;48.54
30730;BME280;17476;48.458;7.928;2023-08-17T12:54:18;99843.59;;;35.53;49.11
30730;BME280;17476;48.458;7.928;2023-08-17T12:56:44;99840.28;;;36.01;48.07
30730;BME280;17476;48.458;7.928;2023-08-17T12:59:10;99839.16;;;36.02;48.17
30730;BME280;17476;48.458;7.928;2023-08-17T13:01:36;99840.63;;;36.00;48.30
30730;BME280;17476;48.458;7.928;2023-08-17T13:04:02;99837.47;;;36.10;47.60
30730;BME280;17476;48.458;7.928;2023-08-17T13:06:28;99843.59;;;36.07;46.51
30730;BME280;17476;48.458;7.928;2023-08-17T13:08:54;99847.78;;;35.83;47.59